createdAt,value
2023-05-04T07:31:55.057Z,13.70
2023-05-04T07:34:30.223Z,13.60
2023-05-04T07:37:03.628Z,13.60
2023-05-04T07:39:31.191Z,13.80
2023-05-04T07:41:58.343Z,14.20
2023-05-04T07:44:25.576Z,13.90
2023-05-04T07:46:52.724Z,14.00
2023-05-04T07:49:19.874Z,13.90
2023-05-04T07:51:47.067Z,14.10
2023-05-04T07:54:15.936Z,14.40
2023-05-04T07:56:43.035Z,14.60
2023-05-04T07:59:10.521Z,14.50
2023-05-04T08:01:37.766Z,14.50
2023-05-04T08:04:05.194Z,14.50
2023-05-04T08:06:33.974Z,14.50
2023-05-04T08:09:01.155Z,14.40
2023-05-04T08:11:28.361Z,14.50
2023-05-04T08:13:55.685Z,14.50
2023-05-04T08:16:23.032Z,14.80
2023-05-04T08:18:50.155Z,14.70
2023-05-04T08:21:17.358Z,14.60
2023-05-04T08:23:44.566Z,14.60
2023-05-04T08:26:11.825Z,14.60
2023-05-04T08:28:40.395Z,15.00
2023-05-04T08:31:08.221Z,15.00
2023-05-04T08:33:35.756Z,15.10
2023-05-04T08:36:07.371Z,15.10
2023-05-04T08:38:34.703Z,15.60
2023-05-04T08:41:06.427Z,15.30
2023-05-04T08:43:38.392Z,15.20
2023-05-04T08:46:06.956Z,15.30
2023-05-04T08:48:35.033Z,15.30
2023-05-04T08:51:04.700Z,15.30
2023-05-04T08:53:32.828Z,15.30
2023-05-04T08:56:04.584Z,15.70
2023-05-04T08:58:33.196Z,15.80
2023-05-04T09:01:01.786Z,16.00
2023-05-04T09:03:30.372Z,16.10
2023-05-04T09:06:02.796Z,16.20
2023-05-04T09:08:30.042Z,16.50
2023-05-04T09:10:57.262Z,16.30
2023-05-04T09:13:24.608Z,16.40
2023-05-04T09:15:56.007Z,16.40
2023-05-04T09:18:23.669Z,16.50
2023-05-04T09:20:51.110Z,16.50
2023-05-04T09:23:18.854Z,16.40
2023-05-04T09:25:48.931Z,16.20
2023-05-04T09:28:17.663Z,16.20
2023-05-04T09:30:48.357Z,16.60
2023-05-04T09:33:27.636Z,16.90
2023-05-04T09:35:55.757Z,16.90
2023-05-04T09:38:31.745Z,16.60
2023-05-04T09:40:59.003Z,16.50
2023-05-04T09:43:26.266Z,17.10
2023-05-04T09:45:53.945Z,16.60
2023-05-04T09:48:27.165Z,16.80
2023-05-04T09:50:54.765Z,17.00
2023-05-04T09:53:25.337Z,17.10
2023-05-04T09:55:55.570Z,17.50
2023-05-04T09:58:24.738Z,18.00
2023-05-04T10:00:53.981Z,17.90
2023-05-04T10:03:22.700Z,17.90
2023-05-04T10:05:51.049Z,17.70
2023-05-04T10:08:19.521Z,17.60
2023-05-04T10:10:46.755Z,17.90
2023-05-04T10:13:14.144Z,18.00
2023-05-04T10:15:50.335Z,18.30
2023-05-04T10:18:41.503Z,18.30
2023-05-04T10:21:20.627Z,18.10
2023-05-04T10:24:03.258Z,18.30
2023-05-04T10:26:59.553Z,18.40
2023-05-04T10:29:29.272Z,18.60
2023-05-04T10:31:57.114Z,18.80
2023-05-04T10:34:35.151Z,18.80
2023-05-04T10:37:04.285Z,18.40
2023-05-04T10:39:33.167Z,18.80
2023-05-04T10:42:07.902Z,18.30
2023-05-04T10:44:48.779Z,18.80
2023-05-04T10:47:16.180Z,19.20
2023-05-04T10:49:43.442Z,18.80
2023-05-04T10:52:13.387Z,18.40
2023-05-04T10:54:42.773Z,18.80
2023-05-04T10:57:12.692Z,19.00
2023-05-04T10:59:41.411Z,19.10
2023-05-04T11:02:09.322Z,19.30
2023-05-04T11:04:38.080Z,19.60
2023-05-04T11:07:06.944Z,19.90
2023-05-04T11:09:39.103Z,19.30
2023-05-04T11:12:07.333Z,19.00
2023-05-04T11:14:40.905Z,18.20
2023-05-04T11:17:23.890Z,18.70
2023-05-04T11:19:55.282Z,19.40
2023-05-04T11:22:25.201Z,19.40
2023-05-04T11:24:54.246Z,19.90
2023-05-04T11:27:23.563Z,20.20
2023-05-04T11:29:59.296Z,20.30
2023-05-04T11:32:40.107Z,20.60
2023-05-04T11:35:23.004Z,20.90
2023-05-04T11:37:50.629Z,21.00
2023-05-04T11:40:23.349Z,20.50
2023-05-04T11:42:51.711Z,20.40
2023-05-04T11:45:21.469Z,20.50
2023-05-04T11:47:50.245Z,20.80
2023-05-04T11:50:19.747Z,20.80
2023-05-04T11:52:47.911Z,21.10
2023-05-04T11:55:29.253Z,22.10
2023-05-04T11:58:04.631Z,24.50
2023-05-04T12:00:40.701Z,25.10
2023-05-04T12:03:09.787Z,26.90
2023-05-04T12:05:37.502Z,26.40
2023-05-04T12:08:07.380Z,25.70
2023-05-04T12:10:35.456Z,26.50
2023-05-04T12:13:02.937Z,27.70
2023-05-04T12:15:37.303Z,26.00
2023-05-04T12:18:04.658Z,24.30
2023-05-04T12:20:32.060Z,26.30
2023-05-04T12:23:06.765Z,26.30
2023-05-04T12:25:34.524Z,27.00
2023-05-04T12:28:04.636Z,26.80
2023-05-04T12:30:32.349Z,25.50
2023-05-04T12:32:59.698Z,25.80
2023-05-04T12:35:27.112Z,26.10
2023-05-04T12:37:54.289Z,24.10
2023-05-04T12:40:28.611Z,22.50
2023-05-04T12:42:56.369Z,23.80
2023-05-04T12:45:23.632Z,22.60
2023-05-04T12:47:50.993Z,23.80
2023-05-04T12:50:18.662Z,23.80
2023-05-04T12:52:45.940Z,23.70
2023-05-04T12:55:13.327Z,24.00
2023-05-04T12:57:42.454Z,24.40
2023-05-04T13:00:10.498Z,24.70
2023-05-04T13:02:38.563Z,25.80
2023-05-04T13:05:08.150Z,27.20
2023-05-04T13:07:35.528Z,27.90
2023-05-04T13:10:02.707Z,28.60
2023-05-04T13:12:30.011Z,29.50
2023-05-04T13:14:58.109Z,28.70
2023-05-04T13:17:25.790Z,29.30
2023-05-04T13:19:52.966Z,30.10
2023-05-04T13:22:20.209Z,29.60
2023-05-04T13:24:47.416Z,29.80
2023-05-04T13:27:14.650Z,30.80
2023-05-04T13:29:41.957Z,30.90
2023-05-04T13:32:09.012Z,30.40
2023-05-04T13:34:36.301Z,29.60
2023-05-04T13:37:03.653Z,30.00
2023-05-04T13:39:30.921Z,29.50
2023-05-04T13:41:58.082Z,29.10
2023-05-04T13:44:25.172Z,29.90
2023-05-04T13:46:52.354Z,30.90
2023-05-04T13:49:19.533Z,31.00
2023-05-04T13:51:47.425Z,30.40
2023-05-04T13:54:14.535Z,31.60
2023-05-04T13:56:42.534Z,31.00
2023-05-04T13:59:09.842Z,30.60
2023-05-04T14:01:37.443Z,31.30
2023-05-04T14:04:05.027Z,30.80
2023-05-04T14:06:33.085Z,30.50
2023-05-04T14:09:00.572Z,30.80
2023-05-04T14:11:28.073Z,30.20
2023-05-04T14:13:56.242Z,28.50
2023-05-04T14:16:23.826Z,29.20
2023-05-04T14:18:51.192Z,29.80
2023-05-04T14:21:18.341Z,30.10
2023-05-04T14:23:46.485Z,30.30
2023-05-04T14:26:13.726Z,29.90
2023-05-04T14:28:41.194Z,29.60
2023-05-04T14:31:10.993Z,30.40
2023-05-04T14:33:40.630Z,30.40
2023-05-04T14:36:08.863Z,30.60
2023-05-04T14:38:36.283Z,29.90
2023-05-04T14:41:07.712Z,29.60
2023-05-04T14:43:35.017Z,29.90
2023-05-04T14:46:03.242Z,30.20
2023-05-04T14:48:30.463Z,30.20
2023-05-04T14:50:57.889Z,30.40
2023-05-04T14:53:25.193Z,29.90
2023-05-04T14:55:52.452Z,30.40
2023-05-04T14:58:20.079Z,30.20
2023-05-04T15:00:47.501Z,30.90
2023-05-04T15:03:14.757Z,31.50
2023-05-04T15:05:42.210Z,30.40
2023-05-04T15:08:09.452Z,30.30
2023-05-04T15:10:37.701Z,30.70
2023-05-04T15:13:05.019Z,30.50
2023-05-04T15:15:32.695Z,30.10
2023-05-04T15:18:00.096Z,30.60
2023-05-04T15:20:27.938Z,29.40
2023-05-04T15:22:55.065Z,29.70
2023-05-04T15:25:24.108Z,29.20
2023-05-04T15:27:51.307Z,29.20
2023-05-04T15:30:19.098Z,29.80
2023-05-04T15:32:46.451Z,27.30
2023-05-04T15:35:14.259Z,27.80
2023-05-04T15:37:41.532Z,29.10
2023-05-04T15:40:09.626Z,27.70
2023-05-04T15:42:42.022Z,24.90
2023-05-04T15:45:10.751Z,22.50
2023-05-04T15:47:38.498Z,21.70
2023-05-04T15:50:06.814Z,21.40
2023-05-04T15:52:34.332Z,21.30
2023-05-04T15:55:12.327Z,21.00
2023-05-04T15:57:44.285Z,20.70
2023-05-04T16:00:12.768Z,20.40
2023-05-04T16:02:39.993Z,20.30
2023-05-04T16:05:07.592Z,20.30
2023-05-04T16:07:34.956Z,20.50
2023-05-04T16:10:03.282Z,20.60
2023-05-04T16:12:30.567Z,20.30
2023-05-04T16:14:57.752Z,20.40
2023-05-04T16:17:26.161Z,20.70
2023-05-04T16:19:53.649Z,20.80
2023-05-04T16:22:21.104Z,21.10
2023-05-04T16:24:48.456Z,21.10
2023-05-04T16:27:16.561Z,20.80
2023-05-04T16:29:44.881Z,20.50
2023-05-04T16:32:12.647Z,19.90
2023-05-04T16:34:39.872Z,19.80
2023-05-04T16:37:08.967Z,19.70
2023-05-04T16:39:38.321Z,19.60
2023-05-04T16:42:06.947Z,19.20
2023-05-04T16:44:34.297Z,19.10
2023-05-04T16:47:01.513Z,19.10
2023-05-04T16:49:29.849Z,18.90
2023-05-04T16:51:57.298Z,18.90
2023-05-04T16:54:24.695Z,18.90
2023-05-04T16:56:52.680Z,18.70
2023-05-04T16:59:19.936Z,18.80
2023-05-04T17:01:47.864Z,18.70
2023-05-04T17:04:15.161Z,18.50
2023-05-04T17:06:42.402Z,18.40
2023-05-04T17:09:10.246Z,18.20
2023-05-04T17:11:37.813Z,18.20
2023-05-04T17:14:05.047Z,18.10
2023-05-04T17:16:32.443Z,18.00
2023-05-04T17:19:00.039Z,17.80
2023-05-04T17:21:27.391Z,17.70
2023-05-04T17:23:54.619Z,17.60
2023-05-04T17:26:22.063Z,17.50
2023-05-04T17:28:49.432Z,17.40
2023-05-04T17:31:16.788Z,17.20
2023-05-04T17:33:44.197Z,17.20
2023-05-04T17:36:12.386Z,17.10
2023-05-04T17:38:40.982Z,17.00
2023-05-04T17:41:10.106Z,16.80
2023-05-04T17:43:37.492Z,16.70
2023-05-04T17:46:04.963Z,16.60
2023-05-04T17:48:32.382Z,16.50
2023-05-04T17:51:00.220Z,16.40
2023-05-04T17:53:28.880Z,16.00
2023-05-04T17:55:56.399Z,15.80
2023-05-04T17:58:23.786Z,15.50
2023-05-04T18:00:53.012Z,15.30
2023-05-04T18:03:20.898Z,15.10
2023-05-04T18:05:48.361Z,15.00
2023-05-04T18:08:15.885Z,14.90
2023-05-04T18:10:43.142Z,14.70
2023-05-04T18:13:10.556Z,14.50
2023-05-04T18:15:37.821Z,14.40
2023-05-04T18:18:05.932Z,14.30
2023-05-04T18:20:33.240Z,14.30
2023-05-04T18:23:00.711Z,14.30
2023-05-04T18:25:27.954Z,14.20
2023-05-04T18:27:55.756Z,14.20
2023-05-04T18:30:22.963Z,14.10
2023-05-04T18:32:50.454Z,14.00
2023-05-04T18:35:17.652Z,13.90
2023-05-04T18:37:45.230Z,13.80
2023-05-04T18:40:13.362Z,13.70
2023-05-04T18:42:40.938Z,13.70
2023-05-04T18:45:10.411Z,13.70
2023-05-04T18:47:38.008Z,13.80
2023-05-04T18:50:06.301Z,13.60
2023-05-04T18:52:34.117Z,13.70
2023-05-04T18:55:01.375Z,13.70
2023-05-04T18:57:30.140Z,13.70
2023-05-04T18:59:57.770Z,13.70
2023-05-04T19:02:26.699Z,13.50
2023-05-04T19:04:53.937Z,13.20
2023-05-04T19:07:21.380Z,13.20
2023-05-04T19:09:48.605Z,13.20
2023-05-04T19:12:16.037Z,13.00
2023-05-04T19:14:44.141Z,13.10
2023-05-04T19:17:11.863Z,13.00
2023-05-04T19:19:39.393Z,12.90
2023-05-04T19:22:07.597Z,12.70
2023-05-04T19:24:36.332Z,12.50
2023-05-04T19:27:04.705Z,12.40
2023-05-04T19:29:32.405Z,12.30
2023-05-04T19:32:03.343Z,12.40
2023-05-04T19:34:33.874Z,12.40
2023-05-04T19:37:01.144Z,12.40
2023-05-04T19:39:28.374Z,12.50
2023-05-04T19:41:55.782Z,12.30
2023-05-04T19:44:23.045Z,12.30
2023-05-04T19:46:51.867Z,12.00
2023-05-04T19:49:19.936Z,12.00
2023-05-04T19:51:48.277Z,12.10
2023-05-04T19:54:15.936Z,12.10
2023-05-04T19:56:43.253Z,11.90
2023-05-04T19:59:10.931Z,11.80
2023-05-04T20:01:38.219Z,11.70
2023-05-04T20:04:08.413Z,11.60
2023-05-04T20:06:36.696Z,11.70
2023-05-04T20:09:04.507Z,11.80
2023-05-04T20:11:31.979Z,11.80
2023-05-04T20:13:59.944Z,11.60
2023-05-04T20:16:27.394Z,11.70
2023-05-04T20:18:54.638Z,11.70
2023-05-04T20:21:21.875Z,11.50
2023-05-04T20:23:49.149Z,11.50
2023-05-04T20:26:16.870Z,11.50
2023-05-04T20:28:44.355Z,11.50
2023-05-04T20:31:12.294Z,11.40
2023-05-04T20:33:39.516Z,11.30
2023-05-04T20:36:07.596Z,11.30
2023-05-04T20:38:34.912Z,11.20
2023-05-04T20:41:09.489Z,11.20
2023-05-04T20:43:36.817Z,11.10
2023-05-04T20:46:04.750Z,11.10
2023-05-04T20:48:32.346Z,11.20
2023-05-04T20:51:12.740Z,11.20
2023-05-04T20:53:41.641Z,11.10
2023-05-04T20:56:09.198Z,11.20
2023-05-04T20:58:36.507Z,11.30
2023-05-04T21:01:05.073Z,11.20
2023-05-04T21:03:33.105Z,11.30
2023-05-04T21:06:02.200Z,11.20
2023-05-04T21:08:29.442Z,11.20
2023-05-04T21:10:56.753Z,11.20
2023-05-04T21:13:24.423Z,11.20
2023-05-04T21:15:51.735Z,11.20
2023-05-04T21:18:19.752Z,11.30
2023-05-04T21:20:47.358Z,11.30
2023-05-04T21:23:14.521Z,11.10
2023-05-04T21:25:42.331Z,11.10
2023-05-04T21:28:09.638Z,11.10
2023-05-04T21:30:40.360Z,11.10
2023-05-04T21:33:07.633Z,11.20
